sensor_id;sensor_type;location;lat;lon;timestamp;P1;durP1;ratioP1;P2;durP2;ratioP2
28335;SDS011;15592;53.656;7.276;2024-03-08T00:02:03;65.75;;;32.80;;
28335;SDS011;15592;53.656;7.276;2024-03-08T00:04:29;69.78;;;34.30;;
28335;SDS011;15592;53.656;7.276;2024-03-08T00:06:55;63.53;;;31.23;;
28335;SDS011;15592;53.656;7.276;2024-03-08T00:09:21;62.15;;;33.15;;
28335;SDS011;15592;53.656;7.276;2024-03-08T00:11:47;66.63;;;33.42;;
28335;SDS011;15592;53.656;7.276;2024-03-08T00:14:15;65.93;;;32.33;;
28335;SDS011;15592;53.656;7.276;2024-03-08T00:16:41;69.18;;;32.40;;
28335;SDS011;15592;53.656;7.276;2024-03-08T00:19:08;61.72;;;31.60;;
28335;SDS011;15592;53.656;7.276;2024-03-08T00:21:35;63.05;;;31.90;;
28335;SDS011;15592;53.656;7.276;2024-03-08T00:24:01;65.72;;;31.60;;
28335;SDS011;15592;53.656;7.276;2024-03-08T00:26:27;62.20;;;32.53;;
28335;SDS011;15592;53.656;7.276;2024-03-08T00:28:55;60.40;;;30.70;;
28335;SDS011;15592;53.656;7.276;2024-03-08T00:31:21;60.80;;;31.40;;
28335;SDS011;15592;53.656;7.276;2024-03-08T00:33:47;65.07;;;33.00;;
28335;SDS011;15592;53.656;7.276;2024-03-08T00:36:13;61.50;;;31.05;;
28335;SDS011;15592;53.656;7.276;2024-03-08T00:38:39;69.60;;;33.80;;
28335;SDS011;15592;53.656;7.276;2024-03-08T00:41:04;70.30;;;33.42;;
28335;SDS011;15592;53.656;7.276;2024-03-08T00:43:31;58.50;;;31.48;;
28335;SDS011;15592;53.656;7.276;2024-03-08T00:45:57;58.47;;;30.65;;
28335;SDS011;15592;53.656;7.276;2024-03-08T00:48:23;58.47;;;30.00;;
28335;SDS011;15592;53.656;7.276;2024-03-08T00:50:49;67.70;;;32.65;;
28335;SDS011;15592;53.656;7.276;2024-03-08T00:53:15;59.03;;;30.40;;
28335;SDS011;15592;53.656;7.276;2024-03-08T00:55:41;61.00;;;30.90;;
28335;SDS011;15592;53.656;7.276;2024-03-08T00:58:07;60.13;;;31.00;;
28335;SDS011;15592;53.656;7.276;2024-03-08T01:00:34;63.15;;;30.00;;
28335;SDS011;15592;53.656;7.276;2024-03-08T01:03:00;59.35;;;29.17;;
28335;SDS011;15592;53.656;7.276;2024-03-08T01:05:28;58.28;;;30.52;;
28335;SDS011;15592;53.656;7.276;2024-03-08T01:07:54;59.88;;;30.50;;
28335;SDS011;15592;53.656;7.276;2024-03-08T01:10:20;63.08;;;31.05;;
28335;SDS011;15592;53.656;7.276;2024-03-08T01:12:46;57.72;;;28.95;;
28335;SDS011;15592;53.656;7.276;2024-03-08T01:15:12;59.42;;;30.92;;
28335;SDS011;15592;53.656;7.276;2024-03-08T01:17:38;59.20;;;31.30;;
28335;SDS011;15592;53.656;7.276;2024-03-08T01:20:04;54.85;;;28.98;;
28335;SDS011;15592;53.656;7.276;2024-03-08T01:22:31;54.25;;;29.85;;
28335;SDS011;15592;53.656;7.276;2024-03-08T01:24:56;55.67;;;28.70;;
28335;SDS011;15592;53.656;7.276;2024-03-08T01:27:22;57.78;;;28.63;;
28335;SDS011;15592;53.656;7.276;2024-03-08T01:29:49;58.90;;;28.98;;
28335;SDS011;15592;53.656;7.276;2024-03-08T01:32:15;58.03;;;30.25;;
28335;SDS011;15592;53.656;7.276;2024-03-08T01:34:42;54.63;;;28.42;;
28335;SDS011;15592;53.656;7.276;2024-03-08T01:37:10;55.15;;;27.83;;
28335;SDS011;15592;53.656;7.276;2024-03-08T01:39:36;54.78;;;27.60;;
28335;SDS011;15592;53.656;7.276;2024-03-08T01:42:02;55.28;;;27.42;;
28335;SDS011;15592;53.656;7.276;2024-03-08T01:44:28;52.10;;;27.67;;
28335;SDS011;15592;53.656;7.276;2024-03-08T01:46:55;51.47;;;27.75;;
28335;SDS011;15592;53.656;7.276;2024-03-08T01:49:21;53.55;;;28.23;;
28335;SDS011;15592;53.656;7.276;2024-03-08T01:51:48;54.55;;;27.65;;
28335;SDS011;15592;53.656;7.276;2024-03-08T01:54:15;54.95;;;28.27;;
28335;SDS011;15592;53.656;7.276;2024-03-08T01:56:42;54.03;;;27.25;;
28335;SDS011;15592;53.656;7.276;2024-03-08T01:59:08;52.30;;;27.50;;
28335;SDS011;15592;53.656;7.276;2024-03-08T02:01:34;54.75;;;26.88;;
28335;SDS011;15592;53.656;7.276;2024-03-08T02:04:00;46.92;;;25.80;;
28335;SDS011;15592;53.656;7.276;2024-03-08T02:06:26;50.40;;;26.20;;
28335;SDS011;15592;53.656;7.276;2024-03-08T02:08:52;48.90;;;25.27;;
28335;SDS011;15592;53.656;7.276;2024-03-08T02:11:19;52.25;;;25.20;;
28335;SDS011;15592;53.656;7.276;2024-03-08T02:13:45;52.90;;;27.08;;
28335;SDS011;15592;53.656;7.276;2024-03-08T02:16:11;49.45;;;25.75;;
28335;SDS011;15592;53.656;7.276;2024-03-08T02:18:37;47.33;;;24.45;;
28335;SDS011;15592;53.656;7.276;2024-03-08T02:21:04;50.22;;;25.55;;
28335;SDS011;15592;53.656;7.276;2024-03-08T02:23:31;50.67;;;26.63;;
28335;SDS011;15592;53.656;7.276;2024-03-08T02:25:57;51.78;;;26.08;;
28335;SDS011;15592;53.656;7.276;2024-03-08T02:28:24;51.00;;;25.70;;
28335;SDS011;15592;53.656;7.276;2024-03-08T02:30:56;47.92;;;25.08;;
28335;SDS011;15592;53.656;7.276;2024-03-08T02:33:22;48.75;;;24.92;;
28335;SDS011;15592;53.656;7.276;2024-03-08T02:35:49;44.55;;;24.90;;
28335;SDS011;15592;53.656;7.276;2024-03-08T02:38:16;52.17;;;26.30;;
28335;SDS011;15592;53.656;7.276;2024-03-08T02:40:43;52.10;;;27.25;;
28335;SDS011;15592;53.656;7.276;2024-03-08T02:43:09;50.72;;;25.00;;
28335;SDS011;15592;53.656;7.276;2024-03-08T02:45:35;47.72;;;25.10;;
28335;SDS011;15592;53.656;7.276;2024-03-08T02:48:02;48.55;;;23.25;;
28335;SDS011;15592;53.656;7.276;2024-03-08T02:50:28;48.83;;;25.55;;
28335;SDS011;15592;53.656;7.276;2024-03-08T02:52:54;45.70;;;24.88;;
28335;SDS011;15592;53.656;7.276;2024-03-08T02:55:20;47.50;;;24.77;;
28335;SDS011;15592;53.656;7.276;2024-03-08T02:57:46;44.67;;;24.02;;
28335;SDS011;15592;53.656;7.276;2024-03-08T03:00:14;46.95;;;24.05;;
28335;SDS011;15592;53.656;7.276;2024-03-08T03:02:41;47.08;;;25.52;;
28335;SDS011;15592;53.656;7.276;2024-03-08T03:05:07;48.05;;;24.92;;
28335;SDS011;15592;53.656;7.276;2024-03-08T03:07:35;41.83;;;22.77;;
28335;SDS011;15592;53.656;7.276;2024-03-08T03:10:01;50.38;;;24.83;;
28335;SDS011;15592;53.656;7.276;2024-03-08T03:12:30;46.42;;;25.17;;
28335;SDS011;15592;53.656;7.276;2024-03-08T03:14:58;43.28;;;23.83;;
28335;SDS011;15592;53.656;7.276;2024-03-08T03:17:25;45.47;;;23.90;;
28335;SDS011;15592;53.656;7.276;2024-03-08T03:19:51;47.45;;;25.23;;
28335;SDS011;15592;53.656;7.276;2024-03-08T03:22:17;52.25;;;24.75;;
28335;SDS011;15592;53.656;7.276;2024-03-08T03:24:44;48.83;;;26.13;;
28335;SDS011;15592;53.656;7.276;2024-03-08T03:27:11;48.92;;;25.90;;
28335;SDS011;15592;53.656;7.276;2024-03-08T03:29:38;49.70;;;26.30;;
28335;SDS011;15592;53.656;7.276;2024-03-08T03:32:07;50.28;;;25.83;;
28335;SDS011;15592;53.656;7.276;2024-03-08T03:34:33;52.90;;;26.40;;
28335;SDS011;15592;53.656;7.276;2024-03-08T03:37:02;51.38;;;26.60;;
28335;SDS011;15592;53.656;7.276;2024-03-08T03:39:29;52.05;;;25.73;;
28335;SDS011;15592;53.656;7.276;2024-03-08T03:41:59;51.67;;;26.13;;
28335;SDS011;15592;53.656;7.276;2024-03-08T03:44:27;48.45;;;25.90;;
28335;SDS011;15592;53.656;7.276;2024-03-08T03:46:53;52.08;;;27.13;;
28335;SDS011;15592;53.656;7.276;2024-03-08T03:49:19;50.90;;;26.70;;
28335;SDS011;15592;53.656;7.276;2024-03-08T03:51:45;52.35;;;27.63;;
28335;SDS011;15592;53.656;7.276;2024-03-08T03:54:11;55.83;;;27.55;;
28335;SDS011;15592;53.656;7.276;2024-03-08T03:56:38;57.15;;;28.17;;
28335;SDS011;15592;53.656;7.276;2024-03-08T03:59:05;57.13;;;28.40;;
28335;SDS011;15592;53.656;7.276;2024-03-08T04:01:31;60.47;;;28.67;;
28335;SDS011;15592;53.656;7.276;2024-03-08T04:03:57;64.70;;;30.38;;
28335;SDS011;15592;53.656;7.276;2024-03-08T04:06:23;62.47;;;30.25;;
28335;SDS011;15592;53.656;7.276;2024-03-08T04:08:49;60.00;;;30.33;;
28335;SDS011;15592;53.656;7.276;2024-03-08T04:11:15;58.95;;;30.83;;
28335;SDS011;15592;53.656;7.276;2024-03-08T04:13:42;56.67;;;28.90;;
28335;SDS011;15592;53.656;7.276;2024-03-08T04:16:08;66.03;;;30.50;;
28335;SDS011;15592;53.656;7.276;2024-03-08T04:18:36;66.75;;;32.97;;
28335;SDS011;15592;53.656;7.276;2024-03-08T04:21:03;65.18;;;32.55;;
28335;SDS011;15592;53.656;7.276;2024-03-08T04:23:32;69.57;;;32.53;;
28335;SDS011;15592;53.656;7.276;2024-03-08T04:26:00;67.40;;;31.90;;
28335;SDS011;15592;53.656;7.276;2024-03-08T04:28:26;65.10;;;32.45;;
28335;SDS011;15592;53.656;7.276;2024-03-08T04:30:52;65.72;;;31.92;;
28335;SDS011;15592;53.656;7.276;2024-03-08T04:33:19;64.97;;;32.88;;
28335;SDS011;15592;53.656;7.276;2024-03-08T04:35:46;65.80;;;31.80;;
28335;SDS011;15592;53.656;7.276;2024-03-08T04:38:12;68.43;;;32.17;;
28335;SDS011;15592;53.656;7.276;2024-03-08T04:40:38;66.75;;;31.95;;
28335;SDS011;15592;53.656;7.276;2024-03-08T04:43:04;62.83;;;30.33;;
28335;SDS011;15592;53.656;7.276;2024-03-08T04:45:31;64.78;;;31.17;;
28335;SDS011;15592;53.656;7.276;2024-03-08T04:47:57;63.60;;;29.70;;
28335;SDS011;15592;53.656;7.276;2024-03-08T04:50:23;60.53;;;30.45;;
28335;SDS011;15592;53.656;7.276;2024-03-08T04:52:49;60.45;;;29.73;;
28335;SDS011;15592;53.656;7.276;2024-03-08T04:55:15;57.22;;;29.50;;
28335;SDS011;15592;53.656;7.276;2024-03-08T04:57:41;62.20;;;28.80;;
28335;SDS011;15592;53.656;7.276;2024-03-08T05:00:09;63.13;;;30.35;;
28335;SDS011;15592;53.656;7.276;2024-03-08T05:02:39;60.78;;;28.75;;
28335;SDS011;15592;53.656;7.276;2024-03-08T05:05:06;65.20;;;29.73;;
28335;SDS011;15592;53.656;7.276;2024-03-08T05:07:32;61.53;;;30.25;;
28335;SDS011;15592;53.656;7.276;2024-03-08T05:09:58;64.03;;;30.23;;
28335;SDS011;15592;53.656;7.276;2024-03-08T05:12:24;66.65;;;31.13;;
28335;SDS011;15592;53.656;7.276;2024-03-08T05:14:51;67.13;;;31.77;;
28335;SDS011;15592;53.656;7.276;2024-03-08T05:17:17;67.95;;;31.75;;
28335;SDS011;15592;53.656;7.276;2024-03-08T05:19:43;69.40;;;31.52;;
28335;SDS011;15592;53.656;7.276;2024-03-08T05:22:09;67.88;;;32.33;;
28335;SDS011;15592;53.656;7.276;2024-03-08T05:24:35;67.95;;;31.45;;
28335;SDS011;15592;53.656;7.276;2024-03-08T05:27:01;66.45;;;30.73;;
28335;SDS011;15592;53.656;7.276;2024-03-08T05:29:28;61.97;;;31.52;;
28335;SDS011;15592;53.656;7.276;2024-03-08T05:31:54;65.57;;;31.63;;
28335;SDS011;15592;53.656;7.276;2024-03-08T05:34:22;65.32;;;31.77;;
28335;SDS011;15592;53.656;7.276;2024-03-08T05:36:49;65.53;;;31.33;;
28335;SDS011;15592;53.656;7.276;2024-03-08T05:39:16;65.28;;;32.42;;
28335;SDS011;15592;53.656;7.276;2024-03-08T05:41:42;67.50;;;31.27;;
28335;SDS011;15592;53.656;7.276;2024-03-08T05:44:09;66.40;;;31.98;;
28335;SDS011;15592;53.656;7.276;2024-03-08T05:46:35;65.05;;;31.60;;
28335;SDS011;15592;53.656;7.276;2024-03-08T05:49:02;66.32;;;31.52;;
28335;SDS011;15592;53.656;7.276;2024-03-08T05:51:30;64.53;;;31.10;;
28335;SDS011;15592;53.656;7.276;2024-03-08T05:53:56;71.85;;;34.10;;
28335;SDS011;15592;53.656;7.276;2024-03-08T05:56:23;67.18;;;32.15;;
28335;SDS011;15592;53.656;7.276;2024-03-08T05:58:49;64.47;;;32.85;;
28335;SDS011;15592;53.656;7.276;2024-03-08T06:01:15;68.90;;;32.30;;
28335;SDS011;15592;53.656;7.276;2024-03-08T06:03:41;66.32;;;32.95;;
28335;SDS011;15592;53.656;7.276;2024-03-08T06:06:12;67.93;;;33.08;;
28335;SDS011;15592;53.656;7.276;2024-03-08T06:08:38;68.28;;;33.47;;
28335;SDS011;15592;53.656;7.276;2024-03-08T06:11:05;71.35;;;33.85;;
28335;SDS011;15592;53.656;7.276;2024-03-08T06:13:34;74.00;;;34.88;;
28335;SDS011;15592;53.656;7.276;2024-03-08T06:16:00;77.77;;;34.03;;
28335;SDS011;15592;53.656;7.276;2024-03-08T06:18:29;67.80;;;32.58;;
28335;SDS011;15592;53.656;7.276;2024-03-08T06:20:55;73.63;;;34.97;;
28335;SDS011;15592;53.656;7.276;2024-03-08T06:23:21;78.68;;;35.25;;
28335;SDS011;15592;53.656;7.276;2024-03-08T06:25:47;71.53;;;34.70;;
28335;SDS011;15592;53.656;7.276;2024-03-08T06:28:13;73.65;;;33.90;;
28335;SDS011;15592;53.656;7.276;2024-03-08T06:30:40;69.57;;;34.42;;
28335;SDS011;15592;53.656;7.276;2024-03-08T06:33:06;73.45;;;34.30;;
28335;SDS011;15592;53.656;7.276;2024-03-08T06:35:32;75.45;;;34.50;;
28335;SDS011;15592;53.656;7.276;2024-03-08T06:37:58;69.93;;;33.95;;
28335;SDS011;15592;53.656;7.276;2024-03-08T06:40:24;78.03;;;33.42;;
28335;SDS011;15592;53.656;7.276;2024-03-08T06:42:50;75.53;;;33.58;;
28335;SDS011;15592;53.656;7.276;2024-03-08T06:45:17;69.38;;;34.92;;
28335;SDS011;15592;53.656;7.276;2024-03-08T06:47:46;71.53;;;33.90;;
28335;SDS011;15592;53.656;7.276;2024-03-08T06:50:12;68.18;;;33.80;;
28335;SDS011;15592;53.656;7.276;2024-03-08T06:52:40;72.40;;;33.10;;
28335;SDS011;15592;53.656;7.276;2024-03-08T06:55:07;69.68;;;33.78;;
28335;SDS011;15592;53.656;7.276;2024-03-08T06:57:36;75.80;;;33.42;;
28335;SDS011;15592;53.656;7.276;2024-03-08T07:00:04;73.13;;;32.38;;
28335;SDS011;15592;53.656;7.276;2024-03-08T07:02:30;65.20;;;31.27;;
28335;SDS011;15592;53.656;7.276;2024-03-08T07:04:57;65.68;;;31.77;;
28335;SDS011;15592;53.656;7.276;2024-03-08T07:07:23;73.03;;;34.72;;
28335;SDS011;15592;53.656;7.276;2024-03-08T07:09:49;68.18;;;32.92;;
28335;SDS011;15592;53.656;7.276;2024-03-08T07:12:15;68.60;;;32.05;;
28335;SDS011;15592;53.656;7.276;2024-03-08T07:14:42;72.38;;;33.28;;
28335;SDS011;15592;53.656;7.276;2024-03-08T07:17:10;66.05;;;31.55;;
28335;SDS011;15592;53.656;7.276;2024-03-08T07:19:36;66.57;;;32.10;;
28335;SDS011;15592;53.656;7.276;2024-03-08T07:22:05;73.15;;;33.88;;
28335;SDS011;15592;53.656;7.276;2024-03-08T07:24:34;70.95;;;34.03;;
28335;SDS011;15592;53.656;7.276;2024-03-08T07:27:19;70.50;;;32.63;;
28335;SDS011;15592;53.656;7.276;2024-03-08T07:29:47;62.90;;;31.17;;
28335;SDS011;15592;53.656;7.276;2024-03-08T07:32:13;71.47;;;32.38;;
28335;SDS011;15592;53.656;7.276;2024-03-08T07:34:50;68.93;;;32.70;;
28335;SDS011;15592;53.656;7.276;2024-03-08T07:37:17;68.70;;;32.97;;
28335;SDS011;15592;53.656;7.276;2024-03-08T07:39:44;70.55;;;33.45;;
28335;SDS011;15592;53.656;7.276;2024-03-08T07:42:10;68.25;;;32.72;;
28335;SDS011;15592;53.656;7.276;2024-03-08T07:44:36;67.97;;;32.75;;
28335;SDS011;15592;53.656;7.276;2024-03-08T07:47:02;67.75;;;32.20;;
28335;SDS011;15592;53.656;7.276;2024-03-08T07:49:29;74.28;;;34.60;;
28335;SDS011;15592;53.656;7.276;2024-03-08T07:51:55;65.38;;;31.77;;
28335;SDS011;15592;53.656;7.276;2024-03-08T07:54:21;68.20;;;32.22;;
28335;SDS011;15592;53.656;7.276;2024-03-08T07:56:57;66.68;;;33.05;;
28335;SDS011;15592;53.656;7.276;2024-03-08T07:59:23;67.22;;;32.40;;
28335;SDS011;15592;53.656;7.276;2024-03-08T08:01:52;64.38;;;33.20;;
28335;SDS011;15592;53.656;7.276;2024-03-08T08:04:18;65.73;;;33.40;;
28335;SDS011;15592;53.656;7.276;2024-03-08T08:06:49;63.20;;;33.55;;
28335;SDS011;15592;53.656;7.276;2024-03-08T08:09:16;73.60;;;35.50;;
28335;SDS011;15592;53.656;7.276;2024-03-08T08:11:53;74.07;;;35.20;;
28335;SDS011;15592;53.656;7.276;2024-03-08T08:14:19;60.35;;;32.28;;
28335;SDS011;15592;53.656;7.276;2024-03-08T08:16:46;67.15;;;33.58;;
28335;SDS011;15592;53.656;7.276;2024-03-08T08:19:13;61.55;;;32.95;;
28335;SDS011;15592;53.656;7.276;2024-03-08T08:21:39;66.25;;;33.35;;
28335;SDS011;15592;53.656;7.276;2024-03-08T08:24:05;67.20;;;33.88;;
28335;SDS011;15592;53.656;7.276;2024-03-08T08:26:31;67.15;;;33.60;;
28335;SDS011;15592;53.656;7.276;2024-03-08T08:28:58;61.70;;;32.75;;
28335;SDS011;15592;53.656;7.276;2024-03-08T08:31:24;66.78;;;33.35;;
28335;SDS011;15592;53.656;7.276;2024-03-08T08:33:51;59.50;;;32.20;;
28335;SDS011;15592;53.656;7.276;2024-03-08T08:36:23;60.60;;;30.90;;
28335;SDS011;15592;53.656;7.276;2024-03-08T08:38:49;59.97;;;31.50;;
28335;SDS011;15592;53.656;7.276;2024-03-08T08:41:15;67.38;;;33.15;;
28335;SDS011;15592;53.656;7.276;2024-03-08T08:43:42;60.03;;;33.63;;
28335;SDS011;15592;53.656;7.276;2024-03-08T08:46:11;61.47;;;31.10;;
28335;SDS011;15592;53.656;7.276;2024-03-08T08:48:40;60.70;;;30.63;;
28335;SDS011;15592;53.656;7.276;2024-03-08T08:51:07;57.78;;;30.70;;
28335;SDS011;15592;53.656;7.276;2024-03-08T08:53:38;60.65;;;32.28;;
28335;SDS011;15592;53.656;7.276;2024-03-08T08:56:08;57.35;;;30.52;;
28335;SDS011;15592;53.656;7.276;2024-03-08T08:58:34;58.55;;;31.27;;
28335;SDS011;15592;53.656;7.276;2024-03-08T09:01:00;53.17;;;29.35;;
28335;SDS011;15592;53.656;7.276;2024-03-08T09:03:26;57.53;;;29.88;;
28335;SDS011;15592;53.656;7.276;2024-03-08T09:05:54;55.28;;;31.60;;
28335;SDS011;15592;53.656;7.276;2024-03-08T09:08:21;55.90;;;31.02;;
28335;SDS011;15592;53.656;7.276;2024-03-08T09:10:48;53.42;;;29.55;;
28335;SDS011;15592;53.656;7.276;2024-03-08T09:13:14;54.80;;;30.00;;
28335;SDS011;15592;53.656;7.276;2024-03-08T09:15:41;52.22;;;29.88;;
28335;SDS011;15592;53.656;7.276;2024-03-08T09:18:08;51.33;;;29.77;;
28335;SDS011;15592;53.656;7.276;2024-03-08T09:20:34;52.38;;;28.63;;
28335;SDS011;15592;53.656;7.276;2024-03-08T09:23:00;55.20;;;29.25;;
28335;SDS011;15592;53.656;7.276;2024-03-08T09:25:28;52.95;;;29.77;;
28335;SDS011;15592;53.656;7.276;2024-03-08T09:28:01;49.70;;;29.10;;
28335;SDS011;15592;53.656;7.276;2024-03-08T09:30:45;52.63;;;29.40;;
28335;SDS011;15592;53.656;7.276;2024-03-08T09:33:31;54.03;;;28.85;;
28335;SDS011;15592;53.656;7.276;2024-03-08T09:36:01;51.60;;;29.80;;
28335;SDS011;15592;53.656;7.276;2024-03-08T09:38:28;58.05;;;29.00;;
28335;SDS011;15592;53.656;7.276;2024-03-08T09:40:54;49.17;;;28.20;;
28335;SDS011;15592;53.656;7.276;2024-03-08T09:43:21;50.50;;;28.60;;
28335;SDS011;15592;53.656;7.276;2024-03-08T09:48:28;46.75;;;27.35;;
28335;SDS011;15592;53.656;7.276;2024-03-08T09:50:57;50.80;;;27.25;;
28335;SDS011;15592;53.656;7.276;2024-03-08T09:53:23;47.67;;;27.33;;
28335;SDS011;15592;53.656;7.276;2024-03-08T09:55:49;45.17;;;26.27;;
28335;SDS011;15592;53.656;7.276;2024-03-08T09:58:15;46.10;;;26.67;;
28335;SDS011;15592;53.656;7.276;2024-03-08T10:00:44;46.10;;;26.75;;
28335;SDS011;15592;53.656;7.276;2024-03-08T10:03:10;43.78;;;25.42;;
28335;SDS011;15592;53.656;7.276;2024-03-08T10:05:39;45.90;;;27.30;;
28335;SDS011;15592;53.656;7.276;2024-03-08T10:08:05;42.85;;;25.75;;
28335;SDS011;15592;53.656;7.276;2024-03-08T10:10:33;47.95;;;27.70;;
28335;SDS011;15592;53.656;7.276;2024-03-08T10:13:00;49.58;;;27.90;;
28335;SDS011;15592;53.656;7.276;2024-03-08T10:15:27;46.13;;;26.52;;
28335;SDS011;15592;53.656;7.276;2024-03-08T10:21:06;45.50;;;26.63;;
28335;SDS011;15592;53.656;7.276;2024-03-08T10:23:34;45.10;;;26.38;;
28335;SDS011;15592;53.656;7.276;2024-03-08T10:26:12;43.97;;;24.95;;
28335;SDS011;15592;53.656;7.276;2024-03-08T10:28:46;49.25;;;27.83;;
28335;SDS011;15592;53.656;7.276;2024-03-08T10:31:13;42.97;;;25.67;;
28335;SDS011;15592;53.656;7.276;2024-03-08T10:33:40;45.63;;;28.23;;
28335;SDS011;15592;53.656;7.276;2024-03-08T10:36:09;44.50;;;27.53;;
28335;SDS011;15592;53.656;7.276;2024-03-08T10:38:36;45.28;;;26.85;;
28335;SDS011;15592;53.656;7.276;2024-03-08T10:41:03;44.05;;;25.77;;
28335;SDS011;15592;53.656;7.276;2024-03-08T10:43:31;50.42;;;28.30;;
28335;SDS011;15592;53.656;7.276;2024-03-08T10:48:51;43.03;;;25.92;;
28335;SDS011;15592;53.656;7.276;2024-03-08T10:51:18;44.47;;;26.58;;
28335;SDS011;15592;53.656;7.276;2024-03-08T10:53:46;42.63;;;26.08;;
28335;SDS011;15592;53.656;7.276;2024-03-08T10:56:13;45.38;;;27.13;;
28335;SDS011;15592;53.656;7.276;2024-03-08T10:58:39;46.33;;;26.35;;
28335;SDS011;15592;53.656;7.276;2024-03-08T11:01:06;46.22;;;27.08;;
28335;SDS011;15592;53.656;7.276;2024-03-08T11:06:13;45.85;;;26.02;;
28335;SDS011;15592;53.656;7.276;2024-03-08T11:08:41;43.42;;;26.83;;
28335;SDS011;15592;53.656;7.276;2024-03-08T11:11:23;46.22;;;26.17;;
28335;SDS011;15592;53.656;7.276;2024-03-08T11:13:55;46.67;;;26.70;;
28335;SDS011;15592;53.656;7.276;2024-03-08T11:18:54;42.05;;;25.92;;
28335;SDS011;15592;53.656;7.276;2024-03-08T11:21:21;42.42;;;26.33;;
28335;SDS011;15592;53.656;7.276;2024-03-08T11:24:01;43.95;;;27.05;;
28335;SDS011;15592;53.656;7.276;2024-03-08T11:26:28;45.05;;;25.75;;
28335;SDS011;15592;53.656;7.276;2024-03-08T11:31:45;44.78;;;26.48;;
28335;SDS011;15592;53.656;7.276;2024-03-08T11:34:15;42.65;;;25.88;;
28335;SDS011;15592;53.656;7.276;2024-03-08T11:36:47;41.95;;;25.67;;
28335;SDS011;15592;53.656;7.276;2024-03-08T11:39:16;48.75;;;27.17;;
28335;SDS011;15592;53.656;7.276;2024-03-08T11:41:49;45.67;;;26.35;;
28335;SDS011;15592;53.656;7.276;2024-03-08T11:44:16;41.15;;;25.48;;
28335;SDS011;15592;53.656;7.276;2024-03-08T11:46:43;42.50;;;26.38;;
28335;SDS011;15592;53.656;7.276;2024-03-08T11:49:13;41.47;;;26.23;;
28335;SDS011;15592;53.656;7.276;2024-03-08T11:51:39;41.85;;;25.05;;
28335;SDS011;15592;53.656;7.276;2024-03-08T11:54:06;46.60;;;26.85;;
28335;SDS011;15592;53.656;7.276;2024-03-08T11:56:32;44.20;;;26.77;;
28335;SDS011;15592;53.656;7.276;2024-03-08T11:58:59;44.05;;;26.48;;
28335;SDS011;15592;53.656;7.276;2024-03-08T12:01:26;43.80;;;25.92;;
28335;SDS011;15592;53.656;7.276;2024-03-08T12:06:44;44.25;;;26.20;;
28335;SDS011;15592;53.656;7.276;2024-03-08T12:09:12;44.95;;;27.40;;
28335;SDS011;15592;53.656;7.276;2024-03-08T12:11:39;41.25;;;25.88;;
28335;SDS011;15592;53.656;7.276;2024-03-08T12:14:06;43.45;;;26.83;;
28335;SDS011;15592;53.656;7.276;2024-03-08T12:16:32;45.85;;;26.80;;
28335;SDS011;15592;53.656;7.276;2024-03-08T12:18:59;38.67;;;24.90;;
28335;SDS011;15592;53.656;7.276;2024-03-08T12:21:26;43.97;;;26.92;;
28335;SDS011;15592;53.656;7.276;2024-03-08T12:24:07;44.15;;;27.23;;
28335;SDS011;15592;53.656;7.276;2024-03-08T12:26:35;41.13;;;26.38;;
28335;SDS011;15592;53.656;7.276;2024-03-08T12:29:14;42.25;;;26.63;;
28335;SDS011;15592;53.656;7.276;2024-03-08T12:31:45;44.63;;;27.27;;
28335;SDS011;15592;53.656;7.276;2024-03-08T12:34:13;44.00;;;26.42;;
28335;SDS011;15592;53.656;7.276;2024-03-08T12:36:49;42.67;;;26.33;;
28335;SDS011;15592;53.656;7.276;2024-03-08T12:39:19;43.78;;;26.13;;
28335;SDS011;15592;53.656;7.276;2024-03-08T12:41:51;43.65;;;26.83;;
28335;SDS011;15592;53.656;7.276;2024-03-08T12:44:24;38.30;;;24.92;;
28335;SDS011;15592;53.656;7.276;2024-03-08T12:46:53;40.13;;;25.20;;
28335;SDS011;15592;53.656;7.276;2024-03-08T12:49:19;40.53;;;24.25;;
28335;SDS011;15592;53.656;7.276;2024-03-08T12:51:51;39.53;;;24.00;;
28335;SDS011;15592;53.656;7.276;2024-03-08T12:54:31;44.78;;;26.08;;
28335;SDS011;15592;53.656;7.276;2024-03-08T12:57:20;38.55;;;25.27;;
28335;SDS011;15592;53.656;7.276;2024-03-08T12:59:54;42.63;;;25.45;;
28335;SDS011;15592;53.656;7.276;2024-03-08T13:02:20;43.40;;;27.20;;
28335;SDS011;15592;53.656;7.276;2024-03-08T13:04:53;42.78;;;26.98;;
28335;SDS011;15592;53.656;7.276;2024-03-08T13:07:24;42.35;;;25.88;;
28335;SDS011;15592;53.656;7.276;2024-03-08T13:09:59;42.15;;;27.50;;
28335;SDS011;15592;53.656;7.276;2024-03-08T13:12:44;43.88;;;26.85;;
28335;SDS011;15592;53.656;7.276;2024-03-08T13:15:15;45.03;;;25.50;;
28335;SDS011;15592;53.656;7.276;2024-03-08T13:18:10;42.90;;;27.00;;
28335;SDS011;15592;53.656;7.276;2024-03-08T13:20:42;43.55;;;26.40;;
28335;SDS011;15592;53.656;7.276;2024-03-08T13:23:17;40.00;;;25.27;;
28335;SDS011;15592;53.656;7.276;2024-03-08T13:25:43;44.70;;;27.75;;
28335;SDS011;15592;53.656;7.276;2024-03-08T13:28:09;47.20;;;27.85;;
28335;SDS011;15592;53.656;7.276;2024-03-08T13:30:35;45.80;;;27.90;;
28335;SDS011;15592;53.656;7.276;2024-03-08T13:33:01;44.63;;;26.30;;
28335;SDS011;15592;53.656;7.276;2024-03-08T13:35:29;45.17;;;26.45;;
28335;SDS011;15592;53.656;7.276;2024-03-08T13:37:55;42.45;;;26.42;;
28335;SDS011;15592;53.656;7.276;2024-03-08T13:40:21;49.85;;;27.27;;
28335;SDS011;15592;53.656;7.276;2024-03-08T13:42:50;42.65;;;27.02;;
28335;SDS011;15592;53.656;7.276;2024-03-08T13:45:15;42.50;;;25.85;;
28335;SDS011;15592;53.656;7.276;2024-03-08T13:47:48;44.67;;;26.95;;
28335;SDS011;15592;53.656;7.276;2024-03-08T13:50:18;45.83;;;26.98;;
28335;SDS011;15592;53.656;7.276;2024-03-08T13:52:48;42.45;;;25.65;;
28335;SDS011;15592;53.656;7.276;2024-03-08T13:55:16;43.97;;;27.25;;
28335;SDS011;15592;53.656;7.276;2024-03-08T13:57:45;43.45;;;27.25;;
28335;SDS011;15592;53.656;7.276;2024-03-08T14:00:13;47.50;;;27.33;;
28335;SDS011;15592;53.656;7.276;2024-03-08T14:02:39;48.35;;;27.98;;
28335;SDS011;15592;53.656;7.276;2024-03-08T14:05:08;41.35;;;26.73;;
28335;SDS011;15592;53.656;7.276;2024-03-08T14:07:39;42.28;;;27.27;;
28335;SDS011;15592;53.656;7.276;2024-03-08T14:10:04;39.90;;;26.05;;
28335;SDS011;15592;53.656;7.276;2024-03-08T14:12:32;44.80;;;26.52;;
28335;SDS011;15592;53.656;7.276;2024-03-08T14:14:58;42.38;;;26.48;;
28335;SDS011;15592;53.656;7.276;2024-03-08T14:17:25;42.05;;;26.58;;
28335;SDS011;15592;53.656;7.276;2024-03-08T14:19:52;42.03;;;25.88;;
28335;SDS011;15592;53.656;7.276;2024-03-08T14:22:18;43.92;;;26.38;;
28335;SDS011;15592;53.656;7.276;2024-03-08T14:24:45;43.58;;;25.45;;
28335;SDS011;15592;53.656;7.276;2024-03-08T14:27:10;39.83;;;25.15;;
28335;SDS011;15592;53.656;7.276;2024-03-08T14:29:37;40.70;;;25.50;;
28335;SDS011;15592;53.656;7.276;2024-03-08T14:32:03;44.65;;;25.88;;
28335;SDS011;15592;53.656;7.276;2024-03-08T14:34:31;40.53;;;24.75;;
28335;SDS011;15592;53.656;7.276;2024-03-08T14:36:59;38.22;;;24.42;;
28335;SDS011;15592;53.656;7.276;2024-03-08T14:39:25;41.75;;;24.52;;
28335;SDS011;15592;53.656;7.276;2024-03-08T14:41:58;38.67;;;24.58;;
28335;SDS011;15592;53.656;7.276;2024-03-08T14:44:25;42.50;;;25.50;;